Hudson — CGDG — position and weather

sailwx.info

Track history (hours):
 
Tides and Currents Weather Stations Pressure Air Temp Water Temp Dewpoint Dewpoint Depression Visibility Wind Speed Wind Dir Waves Ship Positions

Oceanographic research ship Hudson (Canada)

Detailed information on ship capabilities available from University of Delaware's Ocean Information Center.

Last reported at 2017-Apr-25 13:00 UTC. Time now 2017-Apr-25 16:32 UTC.
Position N 43°18' W 079°48'.

Length 85.03 m; beam 15.2 m; draft 6.28 m.

Type: Ship. MMSI: 316024000.

Wind from 330 at 9 knots

Barometer 1016.2 mb
Air temperature 4.7 ° C
Dewpoint 4.9 ° C

Date/timePositionNaut miles runAvg speedWind from/ knotsBaromVisibWave heightAir tempDewpointWater temp
2017-Apr-25 13:00N 43°18' W 079°48'0 0.0 330 / 91016.2 4.7 4.9
2017-Apr-25 09:00N 43°18' W 079°48'0 0.0 270 / 131015.8 5.5 5.4
2017-Apr-25 07:00N 43°18' W 079°48'0 0.0 270 / 141016.4 6.1 5.9
2017-Apr-25 06:00N 43°18' W 079°48'0 0.0 270 / 151016.9 6.8 6.4
2017-Apr-25 05:00N 43°18' W 079°48'0 0.0 260 / 171017.2 7.2 6.7
2017-Apr-25 03:00N 43°18' W 079°48'0 0.0 260 / 141017.7 7.8 6.4
2017-Apr-25 02:00N 43°18' W 079°48'0 0.0 270 / 121017.9 7.6 5.8
2017-Apr-25 00:00N 43°18' W 079°48'0 0.0 270 / 131017.9 6.7 4.1
2017-Apr-24 23:00N 43°18' W 079°48'0 0.0 270 / 151018.2 7.0 4.2
2017-Apr-24 22:00N 43°18' W 079°48'0 0.0 270 / 141018.7 6.2 4.6
2017-Apr-24 21:00N 43°18' W 079°48'0 0.0 260 / 141019.5 6.1 4.1
2017-Apr-24 19:00N 43°18' W 079°48'0 0.0 280 / 131021.0 5.1 4.9
2017-Apr-24 18:00N 43°18' W 079°48'0 0.0 270 / 151021.4 4.2 4.1
2017-Apr-24 17:00N 43°18' W 079°48'0 0.0 270 / 171021.9 4.3 4.2
2017-Apr-24 16:00N 43°18' W 079°48'0 0.0 280 / 171021.8 4.3 4.2
2017-Apr-24 15:00N 43°18' W 079°48'0 0.0 270 / 171021.9 4.5 4.4
2017-Apr-24 14:00N 43°18' W 079°48'0 0.0 280 / 141021.7 5.1 5.0
2017-Apr-24 12:00N 43°18' W 079°48'0 0.0 280 / 121021.6 6.2 6.2
2017-Apr-24 11:00N 43°18' W 079°48'0 0.0 280 / 121020.7 7.3 7.0
2017-Apr-24 08:00N 43°18' W 079°48'0 0.0 240 / 41018.8 8.4 4.5
2017-Apr-24 07:00N 43°18' W 079°48'0 0.0 240 / 61018.7 8.8 4.5
2017-Apr-24 06:00N 43°18' W 079°48'0 0.0 240 / 31018.7 9.3 4.1
2017-Apr-24 05:00N 43°18' W 079°48'0 0.0 220 / 41018.6 10.0 3.9
2017-Apr-24 03:00N 43°18' W 079°48'0 0.0 240 / 91018.0 12.4 5.8
2017-Apr-24 00:00N 43°18' W 079°48'0 0.0 080 / 81016.5 17.2 2.1
2017-Apr-23 22:00N 43°18' W 079°48'0 0.0 080 / 131016.1 18.9 6.5
2017-Apr-23 20:00N 43°18' W 079°48'0 0.0 150 / 61016.1 19.0 1.0
2017-Apr-23 19:00N 43°18' W 079°48'0 0.0 150 / 71016.6 19.0 1.8
2017-Apr-23 17:00N 43°18' W 079°48'0 0.0 140 / 31018.3 16.7 3.2
2017-Apr-23 16:00N 43°18' W 079°48'0 0.0 100 / 31019.0 15.6 4.8
2017-Apr-23 12:00N 43°18' W 079°48'0 0.0 100 / 21020.0 6.8 6.6
2017-Apr-23 09:00N 43°18' W 079°48'0 0.0 130 / 31018.6 5.5 5.5
2017-Apr-23 06:00N 43°18' W 079°48'0 0.0 160 / 31019.8 6.3 6.3
2017-Apr-23 04:00N 43°18' W 079°48'0 0.0 120 / 11019.5 8.5 5.2
2017-Apr-23 02:00N 43°18' W 079°48'0 0.0 110 / 21019.0 9.8 6.3
2017-Apr-23 01:00N 43°18' W 079°48'0 0.0 090 / 71018.4 9.9 7.1
2017-Apr-22 23:00N 43°18' W 079°48'0 0.0 290 / 41017.7 12.3 0.7
2017-Apr-22 20:00N 43°18' W 079°48'0 0.0 320 / 71017.9 12.0 1.2
2017-Apr-22 18:00N 43°18' W 079°48'0 0.0 320 / 71018.1 10.5 2.3
2017-Apr-22 14:00N 43°18' W 079°48'0 0.0 210 / 81018.8 6.1 2.6
2017-Apr-22 12:00N 43°18' W 079°48'0 0.0 170 / 101017.5 5.8 5.1
2017-Apr-22 11:00N 43°18' W 079°48'0 0.0 140 / 41017.2 5.9 5.8
2017-Apr-22 09:00N 43°18' W 079°48'0 0.0 120 / 41016.5 6.1 6.0
2017-Apr-22 08:00N 43°18' W 079°48'0 0.0 110 / 21016.2 6.3 6.2
2017-Apr-22 03:00N 43°18' W 079°48'0 0.0 140 / 61016.5 6.6 5.6
2017-Apr-22 02:00N 43°18' W 079°48'0 0.0 140 / 71016.2 7.1 6.4
2017-Apr-22 00:00N 43°18' W 079°48'0 0.0 120 / 61014.5 8.7 6.5
2017-Apr-21 22:00N 43°18' W 079°48'0 0.0 110 / 61013.3 10.3 7.6
2017-Apr-21 21:00N 43°18' W 079°48'0 0.0 110 / 51012.4 10.6 9.6
2017-Apr-21 19:00N 43°18' W 079°48'0 0.0 120 / 71011.9 9.8 9.8
2017-Apr-21 18:00N 43°18' W 079°48'0 0.0 120 / 91011.3 9.8 9.7
2017-Apr-21 17:00N 43°18' W 079°48'0 0.0 110 / 51010.7 11.411.3
2017-Apr-21 16:00N 43°18' W 079°48'0 0.0 120 / 41010.3 11.711.7
2017-Apr-21 13:00N 43°18' W 079°48'0 0.0 080 / 51009.8 9.1 9.3
2017-Apr-21 09:00N 43°18' W 079°48'0 0.0 120 / 11008.3 6.3 6.7
2017-Apr-21 08:00N 43°18' W 079°48'0 0.0 110 / 11008.5 5.9 6.3
2017-Apr-21 05:00N 43°18' W 079°48'0 0.0 230 / 61009.1 4.9 5.3
2017-Apr-21 04:00N 43°18' W 079°48'0 0.0 240 / 101009.5 4.9 5.3
2017-Apr-21 03:00N 43°18' W 079°48'0 0.0 260 / 131010.0 4.6 5.0
2017-Apr-21 02:00N 43°18' W 079°48'0 0.0 240 / 161010.7 4.7 5.1
2017-Apr-20 22:00N 43°18' W 079°48'0 0.0 250 / 211013.0 4.0 4.4
2017-Apr-20 20:00N 43°18' W 079°48'0 0.0 260 / 171014.7 3.9 4.2
2017-Apr-20 19:00N 43°18' W 079°48'0 0.0 260 / 221016.1 3.9 4.2
2017-Apr-20 18:00N 43°18' W 079°48'0 0.0 270 / 191017.3 3.7 4.0
2017-Apr-20 17:00N 43°18' W 079°48'0 0.0 250 / 141017.9 3.9 4.2
2017-Apr-20 15:00N 43°18' W 079°48'0 0.0 240 / 191019.3 4.4 4.6
2017-Apr-20 14:00N 43°18' W 079°48'0 0.0 260 / 161020.2 4.8 5.0
2017-Apr-20 10:00N 43°18' W 079°48'0 0.0 290 / 111020.1 6.6 6.7
2017-Apr-20 07:00N 43°18' W 079°48'0 0.0 240 / 51019.7 9.4 9.2
2017-Apr-20 01:00N 43°18' W 079°48'0 0.0 170 / 71017.1 16.312.3
2017-Apr-19 23:00N 43°18' W 079°48'0 0.0 160 / 101015.0 19.118.3
2017-Apr-19 20:00N 43°18' W 079°48'0 0.0 110 / 31014.6 17.317.6
2017-Apr-19 19:00N 43°18' W 079°48'0 0.0 070 / 61014.8 16.316.6
2017-Apr-19 18:00N 43°18' W 079°48'0 0.0 080 / 81015.1 16.917.0
2017-Apr-19 16:00N 43°18' W 079°48'0 0.0 080 / 141014.8 16.316.2
2017-Apr-19 14:00N 43°18' W 079°48'0 0.0 280 / 21016.8 6.5 6.6
2017-Apr-19 13:00N 43°18' W 079°48'0 0.0 230 / 21017.2 5.7 5.6
2017-Apr-19 11:00N 43°18' W 079°48'0 0.0 260 / 31018.3 4.8 4.7
2017-Apr-19 10:00N 43°18' W 079°48'0 0.0 260 / 61018.4 4.5 4.5
2017-Apr-19 09:00N 43°18' W 079°48'0 0.0 260 / 81019.4 4.4 4.3
2017-Apr-19 08:00N 43°18' W 079°48'0 0.0 260 / 91020.6 4.7 4.6
2017-Apr-19 07:00N 43°18' W 079°48'0 0.0 260 / 101021.2 4.4 4.2
2017-Apr-19 05:00N 43°18' W 079°48'0 0.0 250 / 81023.8 4.5 3.9
2017-Apr-19 01:00N 43°18' W 079°48'0 0.0 260 / 91026.3 3.9 1.7
2017-Apr-19 00:00N 43°18' W 079°48'0 0.0 260 / 101026.1 3.4 2.8
2017-Apr-18 22:00N 43°18' W 079°48'0 0.0 280 / 101027.3 3.7 3.5
2017-Apr-18 21:00N 43°18' W 079°48'0 0.0 270 / 101028.0 3.6 3.1
2017-Apr-18 20:00N 43°18' W 079°48'0 0.0 260 / 121028.7 3.7 3.1
2017-Apr-18 19:00N 43°18' W 079°48'0 0.0 280 / 111029.4 3.7 3.4
2017-Apr-18 18:00N 43°18' W 079°48'0 0.0 260 / 121029.5 3.5 3.3
2017-Apr-18 13:00N 43°18' W 079°48'0 0.0 260 / 111030.3 3.0 2.0
2017-Apr-18 08:00N 43°18' W 079°48'0 0.0 250 / 71028.1 1.7 0.3
2017-Apr-18 07:00N 43°18' W 079°48'0 0.0 250 / 81027.5 2.0-0.3
2017-Apr-18 06:00N 43°18' W 079°48'0 0.0 240 / 81027.2 2.4-0.2
2017-Apr-18 05:00N 43°18' W 079°48'0 0.0 240 / 81027.0 2.7-0.2
2017-Apr-18 03:00N 43°18' W 079°48'0 0.0 230 / 121025.8 3.4 1.2
2017-Apr-17 20:00N 43°18' W 079°48'0 0.0 180 / 151020.5 13.2 3.6
2017-Apr-17 19:00N 43°18' W 079°48'0 0.0 190 / 191020.4 12.9 4.7
2017-Apr-17 17:00N 43°18' W 079°48'0 0.0 190 / 141020.5 11.3 4.1
2017-Apr-17 11:00N 43°18' W 079°48'0 0.0 150 / 61017.3 8.1 4.8
2017-Apr-17 07:00N 43°18' W 079°48'0 0.0 170 / 51014.9 11.4 5.0
2017-Apr-17 06:00N 43°18' W 079°48'0 0.0 160 / 81014.8 12.2 6.8
2017-Apr-17 05:00N 43°18' W 079°48'0 0.0 140 / 31014.5 13.1 8.9
2017-Apr-16 23:00N 43°18' W 079°48'0 0.0 160 / 91008.0 22.115.9
2017-Apr-16 21:00N 43°18' W 079°48'0 0.0 150 / 71007.3 22.815.4
2017-Apr-16 20:00N 43°18' W 079°48'0 0.0 150 / 111007.0 22.415.4
2017-Apr-16 19:00N 43°18' W 079°48'0 0.0 140 / 81006.9 22.815.4
2017-Apr-16 18:00N 43°18' W 079°48'0 0.0 130 / 51006.9 22.215.8
2017-Apr-16 16:00N 43°18' W 079°48'0 0.0 120 / 131005.9 22.314.9
2017-Apr-16 13:00N 43°18' W 079°48'0 0.0 120 / 51008.2 19.211.7
2017-Apr-16 11:00N 43°18' W 079°48'0 0.0 120 / 61008.6 18.411.3
2017-Apr-16 09:00N 43°18' W 079°48'0 0.0 120 / 51008.9 18.512.4
2017-Apr-16 07:00N 43°18' W 079°48'0 0.0 120 / 51009.8 19.312.9
2017-Apr-16 05:00N 43°18' W 079°48'0 0.0 120 / 71010.5 21.013.6
2017-Apr-16 02:00N 43°18' W 079°48'0 0.0 120 / 101010.0 23.016.2
2017-Apr-16 01:00N 43°18' W 079°48'0 0.0 110 / 101010.1 23.216.6
2017-Apr-16 00:00N 43°18' W 079°48'0 0.0 110 / 81010.5 23.317.3
2017-Apr-15 23:00N 43°18' W 079°48'0 0.0 120 / 51011.5 22.016.8
2017-Apr-15 22:00N 43°18' W 079°48'0 0.0 240 / 31012.3 13.213.1
2017-Apr-15 21:00N 43°18' W 079°48'0 0.0 280 / 81012.7 6.6 6.7
2017-Apr-15 19:00N 43°18' W 079°48'0 0.0 310 / 51015.1 8.8 8.7
2017-Apr-15 18:00N 43°18' W 079°48'0 0.0 280 / 61016.3 5.6 5.5
2017-Apr-15 16:00N 43°18' W 079°48'0 0.0 340 / 41019.8 5.9 5.0
2017-Apr-15 15:00N 43°18' W 079°48'   300 / 41019.8 6.4 4.1
Track history (hours):
 
Tides and Currents Weather Stations Pressure Air Temp Water Temp Dewpoint Dewpoint Depression Visibility Wind Speed Wind Dir Waves Ship Positions

Oceanographic research ship Hudson (Canada)

Detailed information on ship capabilities available from University of Delaware's Ocean Information Center.

Last reported at 2017-Apr-25 13:00 UTC. Time now 2017-Apr-25 16:32 UTC.
Position N 43°18' W 079°48'.

Length 85.03 m; beam 15.2 m; draft 6.28 m.

Type: Ship. MMSI: 316024000.

Wind from 330 at 9 knots

Barometer 1016.2 mb
Air temperature 4.7 ° C
Dewpoint 4.9 ° C

Date/timePositionNaut miles runAvg speedWind from/ knotsBaromVisibWave heightAir tempDewpointWater temp
2017-Apr-25 13:00N 43°18' W 079°48'0 0.0 330 / 91016.2 4.7 4.9
2017-Apr-25 09:00N 43°18' W 079°48'0 0.0 270 / 131015.8 5.5 5.4
2017-Apr-25 07:00N 43°18' W 079°48'0 0.0 270 / 141016.4 6.1 5.9
2017-Apr-25 06:00N 43°18' W 079°48'0 0.0 270 / 151016.9 6.8 6.4
2017-Apr-25 05:00N 43°18' W 079°48'0 0.0 260 / 171017.2 7.2 6.7
2017-Apr-25 03:00N 43°18' W 079°48'0 0.0 260 / 141017.7 7.8 6.4
2017-Apr-25 02:00N 43°18' W 079°48'0 0.0 270 / 121017.9 7.6 5.8
2017-Apr-25 00:00N 43°18' W 079°48'0 0.0 270 / 131017.9 6.7 4.1
2017-Apr-24 23:00N 43°18' W 079°48'0 0.0 270 / 151018.2 7.0 4.2
2017-Apr-24 22:00N 43°18' W 079°48'0 0.0 270 / 141018.7 6.2 4.6
2017-Apr-24 21:00N 43°18' W 079°48'0 0.0 260 / 141019.5 6.1 4.1
2017-Apr-24 19:00N 43°18' W 079°48'0 0.0 280 / 131021.0 5.1 4.9
2017-Apr-24 18:00N 43°18' W 079°48'0 0.0 270 / 151021.4 4.2 4.1
2017-Apr-24 17:00N 43°18' W 079°48'0 0.0 270 / 171021.9 4.3 4.2
2017-Apr-24 16:00N 43°18' W 079°48'0 0.0 280 / 171021.8 4.3 4.2
2017-Apr-24 15:00N 43°18' W 079°48'0 0.0 270 / 171021.9 4.5 4.4
2017-Apr-24 14:00N 43°18' W 079°48'0 0.0 280 / 141021.7 5.1 5.0
2017-Apr-24 12:00N 43°18' W 079°48'0 0.0 280 / 121021.6 6.2 6.2
2017-Apr-24 11:00N 43°18' W 079°48'0 0.0 280 / 121020.7 7.3 7.0
2017-Apr-24 08:00N 43°18' W 079°48'0 0.0 240 / 41018.8 8.4 4.5
2017-Apr-24 07:00N 43°18' W 079°48'0 0.0 240 / 61018.7 8.8 4.5
2017-Apr-24 06:00N 43°18' W 079°48'0 0.0 240 / 31018.7 9.3 4.1
2017-Apr-24 05:00N 43°18' W 079°48'0 0.0 220 / 41018.6 10.0 3.9
2017-Apr-24 03:00N 43°18' W 079°48'0 0.0 240 / 91018.0 12.4 5.8
2017-Apr-24 00:00N 43°18' W 079°48'0 0.0 080 / 81016.5 17.2 2.1
2017-Apr-23 22:00N 43°18' W 079°48'0 0.0 080 / 131016.1 18.9 6.5
2017-Apr-23 20:00N 43°18' W 079°48'0 0.0 150 / 61016.1 19.0 1.0
2017-Apr-23 19:00N 43°18' W 079°48'0 0.0 150 / 71016.6 19.0 1.8
2017-Apr-23 17:00N 43°18' W 079°48'0 0.0 140 / 31018.3 16.7 3.2
2017-Apr-23 16:00N 43°18' W 079°48'0 0.0 100 / 31019.0 15.6 4.8
2017-Apr-23 12:00N 43°18' W 079°48'0 0.0 100 / 21020.0 6.8 6.6
2017-Apr-23 09:00N 43°18' W 079°48'0 0.0 130 / 31018.6 5.5 5.5
2017-Apr-23 06:00N 43°18' W 079°48'0 0.0 160 / 31019.8 6.3 6.3
2017-Apr-23 04:00N 43°18' W 079°48'0 0.0 120 / 11019.5 8.5 5.2
2017-Apr-23 02:00N 43°18' W 079°48'0 0.0 110 / 21019.0 9.8 6.3
2017-Apr-23 01:00N 43°18' W 079°48'0 0.0 090 / 71018.4 9.9 7.1
2017-Apr-22 23:00N 43°18' W 079°48'0 0.0 290 / 41017.7 12.3 0.7
2017-Apr-22 20:00N 43°18' W 079°48'0 0.0 320 / 71017.9 12.0 1.2
2017-Apr-22 18:00N 43°18' W 079°48'0 0.0 320 / 71018.1 10.5 2.3
2017-Apr-22 14:00N 43°18' W 079°48'0 0.0 210 / 81018.8 6.1 2.6
2017-Apr-22 12:00N 43°18' W 079°48'0 0.0 170 / 101017.5 5.8 5.1
2017-Apr-22 11:00N 43°18' W 079°48'0 0.0 140 / 41017.2 5.9 5.8
2017-Apr-22 09:00N 43°18' W 079°48'0 0.0 120 / 41016.5 6.1 6.0
2017-Apr-22 08:00N 43°18' W 079°48'0 0.0 110 / 21016.2 6.3 6.2
2017-Apr-22 03:00N 43°18' W 079°48'0 0.0 140 / 61016.5 6.6 5.6
2017-Apr-22 02:00N 43°18' W 079°48'0 0.0 140 / 71016.2 7.1 6.4
2017-Apr-22 00:00N 43°18' W 079°48'0 0.0 120 / 61014.5 8.7 6.5
2017-Apr-21 22:00N 43°18' W 079°48'0 0.0 110 / 61013.3 10.3 7.6
2017-Apr-21 21:00N 43°18' W 079°48'0 0.0 110 / 51012.4 10.6 9.6
2017-Apr-21 19:00N 43°18' W 079°48'0 0.0 120 / 71011.9 9.8 9.8
2017-Apr-21 18:00N 43°18' W 079°48'0 0.0 120 / 91011.3 9.8 9.7
2017-Apr-21 17:00N 43°18' W 079°48'0 0.0 110 / 51010.7 11.411.3
2017-Apr-21 16:00N 43°18' W 079°48'0 0.0 120 / 41010.3 11.711.7
2017-Apr-21 13:00N 43°18' W 079°48'0 0.0 080 / 51009.8 9.1 9.3
2017-Apr-21 09:00N 43°18' W 079°48'0 0.0 120 / 11008.3 6.3 6.7
2017-Apr-21 08:00N 43°18' W 079°48'0 0.0 110 / 11008.5 5.9 6.3
2017-Apr-21 05:00N 43°18' W 079°48'0 0.0 230 / 61009.1 4.9 5.3
2017-Apr-21 04:00N 43°18' W 079°48'0 0.0 240 / 101009.5 4.9 5.3
2017-Apr-21 03:00N 43°18' W 079°48'0 0.0 260 / 131010.0 4.6 5.0
2017-Apr-21 02:00N 43°18' W 079°48'0 0.0 240 / 161010.7 4.7 5.1
2017-Apr-20 22:00N 43°18' W 079°48'0 0.0 250 / 211013.0 4.0 4.4
2017-Apr-20 20:00N 43°18' W 079°48'0 0.0 260 / 171014.7 3.9 4.2
2017-Apr-20 19:00N 43°18' W 079°48'0 0.0 260 / 221016.1 3.9 4.2
2017-Apr-20 18:00N 43°18' W 079°48'0 0.0 270 / 191017.3 3.7 4.0
2017-Apr-20 17:00N 43°18' W 079°48'0 0.0 250 / 141017.9 3.9 4.2
2017-Apr-20 15:00N 43°18' W 079°48'0 0.0 240 / 191019.3 4.4 4.6
2017-Apr-20 14:00N 43°18' W 079°48'0 0.0 260 / 161020.2 4.8 5.0
2017-Apr-20 10:00N 43°18' W 079°48'0 0.0 290 / 111020.1 6.6 6.7
2017-Apr-20 07:00N 43°18' W 079°48'0 0.0 240 / 51019.7 9.4 9.2
2017-Apr-20 01:00N 43°18' W 079°48'0 0.0 170 / 71017.1 16.312.3
2017-Apr-19 23:00N 43°18' W 079°48'0 0.0 160 / 101015.0 19.118.3
2017-Apr-19 20:00N 43°18' W 079°48'0 0.0 110 / 31014.6 17.317.6
2017-Apr-19 19:00N 43°18' W 079°48'0 0.0 070 / 61014.8 16.316.6
2017-Apr-19 18:00N 43°18' W 079°48'0 0.0 080 / 81015.1 16.917.0
2017-Apr-19 16:00N 43°18' W 079°48'0 0.0 080 / 141014.8 16.316.2
2017-Apr-19 14:00N 43°18' W 079°48'0 0.0 280 / 21016.8 6.5 6.6
2017-Apr-19 13:00N 43°18' W 079°48'0 0.0 230 / 21017.2 5.7 5.6
2017-Apr-19 11:00N 43°18' W 079°48'0 0.0 260 / 31018.3 4.8 4.7
2017-Apr-19 10:00N 43°18' W 079°48'0 0.0 260 / 61018.4 4.5 4.5
2017-Apr-19 09:00N 43°18' W 079°48'0 0.0 260 / 81019.4 4.4 4.3
2017-Apr-19 08:00N 43°18' W 079°48'0 0.0 260 / 91020.6 4.7 4.6
2017-Apr-19 07:00N 43°18' W 079°48'0 0.0 260 / 101021.2 4.4 4.2
2017-Apr-19 05:00N 43°18' W 079°48'0 0.0 250 / 81023.8 4.5 3.9
2017-Apr-19 01:00N 43°18' W 079°48'0 0.0 260 / 91026.3 3.9 1.7
2017-Apr-19 00:00N 43°18' W 079°48'0 0.0 260 / 101026.1 3.4 2.8
2017-Apr-18 22:00N 43°18' W 079°48'0 0.0 280 / 101027.3 3.7 3.5
2017-Apr-18 21:00N 43°18' W 079°48'0 0.0 270 / 101028.0 3.6 3.1
2017-Apr-18 20:00N 43°18' W 079°48'0 0.0 260 / 121028.7 3.7 3.1
2017-Apr-18 19:00N 43°18' W 079°48'0 0.0 280 / 111029.4 3.7 3.4
2017-Apr-18 18:00N 43°18' W 079°48'0 0.0 260 / 121029.5 3.5 3.3
2017-Apr-18 13:00N 43°18' W 079°48'0 0.0 260 / 111030.3 3.0 2.0
2017-Apr-18 08:00N 43°18' W 079°48'0 0.0 250 / 71028.1 1.7 0.3
2017-Apr-18 07:00N 43°18' W 079°48'0 0.0 250 / 81027.5 2.0-0.3
2017-Apr-18 06:00N 43°18' W 079°48'0 0.0 240 / 81027.2 2.4-0.2
2017-Apr-18 05:00N 43°18' W 079°48'0 0.0 240 / 81027.0 2.7-0.2
2017-Apr-18 03:00N 43°18' W 079°48'0 0.0 230 / 121025.8 3.4 1.2
2017-Apr-17 20:00N 43°18' W 079°48'0 0.0 180 / 151020.5 13.2 3.6
2017-Apr-17 19:00N 43°18' W 079°48'0 0.0 190 / 191020.4 12.9 4.7
2017-Apr-17 17:00N 43°18' W 079°48'0 0.0 190 / 141020.5 11.3 4.1
2017-Apr-17 11:00N 43°18' W 079°48'0 0.0 150 / 61017.3 8.1 4.8
2017-Apr-17 07:00N 43°18' W 079°48'0 0.0 170 / 51014.9 11.4 5.0
2017-Apr-17 06:00N 43°18' W 079°48'0 0.0 160 / 81014.8 12.2 6.8
2017-Apr-17 05:00N 43°18' W 079°48'0 0.0 140 / 31014.5 13.1 8.9
2017-Apr-16 23:00N 43°18' W 079°48'0 0.0 160 / 91008.0 22.115.9
2017-Apr-16 21:00N 43°18' W 079°48'0 0.0 150 / 71007.3 22.815.4
2017-Apr-16 20:00N 43°18' W 079°48'0 0.0 150 / 111007.0 22.415.4
2017-Apr-16 19:00N 43°18' W 079°48'0 0.0 140 / 81006.9 22.815.4
2017-Apr-16 18:00N 43°18' W 079°48'0 0.0 130 / 51006.9 22.215.8
2017-Apr-16 16:00N 43°18' W 079°48'0 0.0 120 / 131005.9 22.314.9
2017-Apr-16 13:00N 43°18' W 079°48'0 0.0 120 / 51008.2 19.211.7
2017-Apr-16 11:00N 43°18' W 079°48'0 0.0 120 / 61008.6 18.411.3
2017-Apr-16 09:00N 43°18' W 079°48'0 0.0 120 / 51008.9 18.512.4
2017-Apr-16 07:00N 43°18' W 079°48'0 0.0 120 / 51009.8 19.312.9
2017-Apr-16 05:00N 43°18' W 079°48'0 0.0 120 / 71010.5 21.013.6
2017-Apr-16 02:00N 43°18' W 079°48'0 0.0 120 / 101010.0 23.016.2
2017-Apr-16 01:00N 43°18' W 079°48'0 0.0 110 / 101010.1 23.216.6
2017-Apr-16 00:00N 43°18' W 079°48'0 0.0 110 / 81010.5 23.317.3
2017-Apr-15 23:00N 43°18' W 079°48'0 0.0 120 / 51011.5 22.016.8
2017-Apr-15 22:00N 43°18' W 079°48'0 0.0 240 / 31012.3 13.213.1
2017-Apr-15 21:00N 43°18' W 079°48'0 0.0 280 / 81012.7 6.6 6.7
2017-Apr-15 19:00N 43°18' W 079°48'0 0.0 310 / 51015.1 8.8 8.7
2017-Apr-15 18:00N 43°18' W 079°48'0 0.0 280 / 61016.3 5.6 5.5
2017-Apr-15 16:00N 43°18' W 079°48'0 0.0 340 / 41019.8 5.9 5.0
2017-Apr-15 15:00N 43°18' W 079°48'   300 / 41019.8 6.4 4.1

Dump ship's entire track history